createdAt,value
2023-05-05T00:01:54.178Z,16.17
2023-05-05T00:04:22.795Z,16.97
2023-05-05T00:06:49.995Z,19.33
2023-05-05T00:09:17.107Z,18.93
2023-05-05T00:11:44.294Z,17.63
2023-05-05T00:14:11.459Z,17.20
2023-05-05T00:16:38.734Z,16.50
2023-05-05T00:19:06.643Z,17.05
2023-05-05T00:21:33.747Z,18.43
2023-05-05T00:24:01.058Z,16.40
2023-05-05T00:26:28.248Z,14.17
2023-05-05T00:28:55.360Z,15.40
2023-05-05T00:31:22.695Z,13.73
2023-05-05T00:33:49.909Z,15.53
2023-05-05T00:36:17.035Z,13.83
2023-05-05T00:38:44.162Z,19.60
2023-05-05T00:41:11.362Z,28.07
2023-05-05T00:43:38.478Z,34.37
2023-05-05T00:46:10.316Z,31.47
2023-05-05T00:48:37.483Z,45.17
2023-05-05T00:51:08.746Z,40.13
2023-05-05T00:53:36.190Z,34.10
2023-05-05T00:56:03.312Z,30.10
2023-05-05T00:58:30.422Z,34.33
2023-05-05T01:00:57.540Z,22.40
2023-05-05T01:03:24.917Z,20.30
2023-05-05T01:05:56.088Z,26.17
2023-05-05T01:08:29.344Z,18.00
2023-05-05T01:10:58.384Z,16.30
2023-05-05T01:13:25.513Z,19.53
2023-05-05T01:16:02.619Z,17.83
2023-05-05T01:18:44.814Z,16.87
2023-05-05T01:21:16.269Z,19.23
2023-05-05T01:23:52.459Z,19.27
2023-05-05T01:26:32.574Z,70.53
2023-05-05T01:29:02.132Z,61.83
2023-05-05T01:31:51.757Z,54.43
2023-05-05T01:34:24.290Z,40.77
2023-05-05T01:36:53.844Z,39.23
2023-05-05T01:39:21.078Z,45.57
2023-05-05T01:41:48.803Z,52.27
2023-05-05T01:44:16.841Z,54.43
2023-05-05T01:46:43.936Z,61.97
2023-05-05T01:49:11.085Z,53.10
2023-05-05T01:51:38.381Z,38.07
2023-05-05T01:54:08.101Z,46.07
2023-05-05T01:56:35.443Z,51.40
2023-05-05T01:59:02.612Z,51.10
2023-05-05T02:01:29.804Z,38.60
2023-05-05T02:03:57.182Z,48.53
2023-05-05T02:06:24.844Z,35.03
2023-05-05T02:08:52.874Z,32.03
2023-05-05T02:11:21.760Z,48.50
2023-05-05T02:13:49.075Z,56.53
2023-05-05T02:16:16.326Z,42.40
2023-05-05T02:18:43.482Z,46.47
2023-05-05T02:21:10.739Z,45.07
2023-05-05T02:23:37.862Z,53.63
2023-05-05T02:26:06.001Z,50.13
2023-05-05T02:28:38.639Z,49.20
2023-05-05T02:31:05.980Z,52.43
2023-05-05T02:33:33.702Z,51.83
2023-05-05T02:36:01.724Z,42.07
2023-05-05T02:38:29.333Z,42.87
2023-05-05T02:40:56.595Z,43.33
2023-05-05T02:43:23.950Z,39.93
2023-05-05T02:45:51.178Z,35.43
2023-05-05T02:48:18.267Z,32.57
2023-05-05T02:50:45.424Z,31.80
2023-05-05T02:53:12.522Z,39.33
2023-05-05T02:55:45.217Z,50.70
2023-05-05T02:58:14.915Z,39.67
2023-05-05T03:00:51.862Z,36.87
2023-05-05T03:03:19.620Z,36.20
2023-05-05T03:05:51.426Z,36.37
2023-05-05T03:08:19.055Z,35.67
2023-05-05T03:11:00.432Z,37.13
2023-05-05T03:13:27.593Z,34.67
2023-05-05T03:15:54.801Z,33.93
2023-05-05T03:18:21.986Z,59.90
2023-05-05T03:20:49.107Z,76.43
2023-05-05T03:23:20.833Z,46.33
2023-05-05T03:25:48.412Z,42.57
2023-05-05T03:28:15.726Z,38.90
2023-05-05T03:30:43.011Z,33.00
2023-05-05T03:33:11.358Z,34.37
2023-05-05T03:35:38.541Z,40.47
2023-05-05T03:38:05.651Z,35.97
2023-05-05T03:40:43.615Z,33.43
2023-05-05T03:43:11.870Z,24.87
2023-05-05T03:45:39.009Z,30.97
2023-05-05T03:48:06.968Z,31.93
2023-05-05T03:50:34.169Z,33.53
2023-05-05T03:53:01.440Z,40.60
2023-05-05T03:55:28.567Z,41.43
2023-05-05T03:57:55.683Z,41.70
2023-05-05T04:00:22.814Z,39.33
2023-05-05T04:02:50.053Z,53.60
2023-05-05T04:05:17.390Z,75.33
2023-05-05T04:07:44.510Z,132.70
2023-05-05T04:10:11.868Z,147.30
2023-05-05T04:12:39.073Z,133.13
2023-05-05T04:15:06.906Z,142.53
2023-05-05T04:17:34.057Z,137.17
2023-05-05T04:20:01.253Z,87.20
2023-05-05T04:22:28.356Z,62.30
2023-05-05T04:24:55.873Z,47.07
2023-05-05T04:27:23.035Z,44.57
2023-05-05T04:29:50.168Z,40.77
2023-05-05T04:32:17.598Z,45.43
2023-05-05T04:35:03.227Z,45.57
2023-05-05T04:37:30.332Z,43.33
2023-05-05T04:39:57.452Z,34.77
2023-05-05T04:42:24.621Z,31.50
2023-05-05T04:44:51.734Z,31.13
2023-05-05T04:47:18.835Z,33.10
2023-05-05T04:49:46.046Z,30.53
2023-05-05T04:52:14.028Z,35.53
2023-05-05T04:54:41.172Z,32.37
2023-05-05T04:57:08.465Z,31.63
2023-05-05T04:59:36.376Z,37.03
2023-05-05T05:02:03.551Z,28.50
2023-05-05T05:04:30.689Z,31.23
2023-05-05T05:06:59.254Z,24.27
2023-05-05T05:09:26.540Z,21.13
2023-05-05T05:11:53.664Z,21.33
2023-05-05T05:14:20.790Z,20.53
2023-05-05T05:16:51.147Z,19.53
2023-05-05T05:19:18.542Z,20.53
2023-05-05T05:21:45.744Z,18.63
2023-05-05T05:24:12.844Z,18.63
2023-05-05T05:26:39.970Z,15.13
2023-05-05T05:29:07.170Z,14.10
2023-05-05T05:31:34.480Z,16.60
2023-05-05T05:34:01.741Z,14.40
2023-05-05T05:36:28.872Z,11.97
2023-05-05T05:38:56.103Z,10.73
2023-05-05T05:41:23.345Z,9.75
2023-05-05T05:43:50.483Z,8.90
2023-05-05T05:46:18.262Z,8.00
2023-05-05T05:48:45.543Z,7.85
2023-05-05T05:51:12.625Z,7.68
2023-05-05T05:53:39.746Z,6.50
2023-05-05T05:56:07.145Z,8.23
2023-05-05T05:58:34.344Z,10.10
2023-05-05T06:01:01.502Z,7.30
2023-05-05T06:03:28.683Z,7.07
2023-05-05T06:05:55.854Z,9.27
2023-05-05T06:08:24.949Z,8.45
2023-05-05T06:10:52.261Z,6.80
2023-05-05T06:13:19.451Z,5.03
2023-05-05T06:15:46.860Z,4.90
2023-05-05T06:18:14.067Z,5.68
2023-05-05T06:20:41.276Z,11.35
2023-05-05T06:23:08.389Z,10.05
2023-05-05T06:25:35.512Z,8.70
2023-05-05T06:28:02.635Z,5.50
2023-05-05T06:30:29.862Z,4.72
2023-05-05T06:32:57.072Z,11.13
2023-05-05T06:35:24.708Z,7.18
2023-05-05T06:37:51.833Z,8.52
2023-05-05T06:40:18.953Z,11.57
2023-05-05T06:42:46.185Z,9.82
2023-05-05T06:45:13.461Z,8.98
2023-05-05T06:47:40.661Z,13.40
2023-05-05T06:50:09.183Z,6.65
2023-05-05T06:52:36.699Z,5.75
2023-05-05T06:55:04.606Z,5.95
2023-05-05T06:57:31.803Z,5.15
2023-05-05T06:59:59.252Z,5.35
2023-05-05T07:02:27.064Z,4.25
2023-05-05T07:04:55.468Z,4.40
2023-05-05T07:07:22.850Z,4.20
2023-05-05T07:09:50.021Z,4.93
2023-05-05T07:12:17.214Z,4.35
2023-05-05T07:14:44.336Z,4.57
2023-05-05T07:17:11.856Z,4.85
2023-05-05T07:19:39.002Z,3.47
2023-05-05T07:22:06.314Z,3.10
2023-05-05T07:24:33.470Z,4.32
2023-05-05T07:27:01.321Z,3.22
2023-05-05T07:29:28.465Z,4.28
2023-05-05T07:32:01.965Z,3.13
2023-05-05T07:34:29.100Z,3.35
2023-05-05T07:36:56.421Z,2.90
2023-05-05T07:39:23.623Z,3.25
2023-05-05T07:41:50.973Z,5.10
2023-05-05T07:44:18.145Z,4.95
2023-05-05T07:46:45.285Z,4.85
2023-05-05T07:49:12.391Z,5.22
2023-05-05T07:51:39.500Z,5.22
2023-05-05T07:54:06.742Z,5.72
2023-05-05T07:56:33.901Z,3.22
2023-05-05T07:59:01.124Z,3.75
2023-05-05T08:01:28.295Z,5.03
2023-05-05T08:03:55.641Z,3.63
2023-05-05T08:06:24.862Z,3.88
2023-05-05T08:08:53.491Z,4.40
2023-05-05T08:11:21.772Z,5.07
2023-05-05T08:13:48.968Z,5.93
2023-05-05T08:16:16.373Z,3.63
2023-05-05T08:18:43.526Z,7.13
2023-05-05T08:21:10.713Z,3.65
2023-05-05T08:23:38.027Z,4.07
2023-05-05T08:26:09.406Z,6.30
2023-05-05T08:28:36.875Z,5.28
2023-05-05T08:31:05.567Z,5.13
2023-05-05T08:33:32.935Z,3.97
2023-05-05T08:36:00.118Z,4.85
2023-05-05T08:38:27.389Z,4.00
2023-05-05T08:40:54.506Z,3.80
2023-05-05T08:43:23.788Z,3.85
2023-05-05T08:45:53.916Z,3.15
2023-05-05T08:48:21.304Z,5.78
2023-05-05T08:50:49.543Z,3.50
2023-05-05T08:53:17.101Z,5.60
2023-05-05T08:55:47.372Z,4.60
2023-05-05T08:58:14.523Z,4.60
2023-05-05T09:00:42.974Z,3.30
2023-05-05T09:03:10.183Z,3.35
2023-05-05T09:05:37.385Z,4.63
2023-05-05T09:08:10.173Z,3.22
2023-05-05T09:10:37.380Z,3.63
2023-05-05T09:13:07.350Z,3.72
2023-05-05T09:15:34.644Z,3.20
2023-05-05T09:18:02.031Z,8.52
2023-05-05T09:20:36.154Z,3.58
2023-05-05T09:23:10.012Z,3.28
2023-05-05T09:25:37.131Z,4.20
2023-05-05T09:28:10.909Z,3.35
2023-05-05T09:30:38.208Z,3.33
2023-05-05T09:33:05.331Z,3.60
2023-05-05T09:35:51.274Z,2.97
2023-05-05T09:38:18.786Z,2.58
2023-05-05T09:40:55.157Z,2.78
2023-05-05T09:43:22.839Z,3.20
2023-05-05T09:45:50.303Z,3.33
2023-05-05T09:48:43.881Z,3.67
2023-05-05T09:51:11.266Z,3.95
2023-05-05T09:53:42.386Z,4.45
2023-05-05T09:56:10.377Z,3.03
2023-05-05T09:58:37.749Z,3.08
2023-05-05T10:01:05.111Z,2.67
2023-05-05T10:03:32.443Z,3.20
2023-05-05T10:06:00.987Z,2.80
2023-05-05T10:08:28.849Z,7.00
2023-05-05T10:10:57.155Z,3.92
2023-05-05T10:13:24.951Z,4.90
2023-05-05T10:15:54.958Z,3.47
2023-05-05T10:18:22.198Z,3.75
2023-05-05T10:20:49.850Z,6.10
2023-05-05T10:23:18.294Z,3.90
2023-05-05T10:25:52.070Z,5.38
2023-05-05T10:28:22.181Z,5.15
2023-05-05T10:30:49.518Z,4.03
2023-05-05T10:33:31.704Z,4.35
2023-05-05T10:36:00.484Z,2.58
2023-05-05T10:38:28.544Z,5.25
2023-05-05T10:40:55.632Z,4.03
2023-05-05T10:43:22.737Z,3.47
2023-05-05T10:45:50.002Z,4.82
2023-05-05T10:48:19.747Z,7.03
2023-05-05T10:50:49.257Z,2.97
2023-05-05T10:53:33.394Z,5.32
2023-05-05T10:56:09.805Z,3.97
2023-05-05T10:58:51.110Z,3.72
2023-05-05T11:01:30.507Z,4.63
2023-05-05T11:04:16.762Z,3.13
2023-05-05T11:07:03.821Z,3.95
2023-05-05T11:09:31.400Z,5.45
2023-05-05T11:12:05.063Z,4.95
2023-05-05T11:14:32.337Z,3.70
2023-05-05T11:16:59.576Z,2.88
2023-05-05T11:19:48.228Z,5.07
2023-05-05T11:22:16.449Z,9.98
2023-05-05T11:24:43.626Z,4.93
2023-05-05T11:27:11.528Z,2.50
2023-05-05T11:29:57.659Z,4.97
2023-05-05T11:32:25.013Z,6.10
2023-05-05T11:34:52.176Z,3.83
2023-05-05T11:37:19.317Z,3.20
2023-05-05T11:39:50.498Z,3.05
2023-05-05T11:42:23.490Z,3.35
2023-05-05T11:44:51.212Z,2.50
2023-05-05T11:47:18.277Z,2.53
2023-05-05T11:49:45.390Z,5.13
2023-05-05T11:52:13.227Z,2.65
2023-05-05T11:54:41.433Z,2.65
2023-05-05T11:57:09.047Z,2.50
2023-05-05T11:59:37.374Z,2.70
2023-05-05T12:02:04.971Z,2.28
2023-05-05T12:04:32.289Z,3.38
2023-05-05T12:06:59.798Z,4.75
2023-05-05T12:09:27.528Z,2.10
2023-05-05T12:11:54.647Z,3.95
2023-05-05T12:14:22.046Z,2.53
2023-05-05T12:16:58.584Z,3.30
2023-05-05T12:19:33.239Z,2.60
2023-05-05T12:22:01.336Z,3.15
2023-05-05T12:24:30.154Z,5.50
2023-05-05T12:27:17.597Z,2.72
2023-05-05T12:29:44.791Z,23.83
2023-05-05T12:32:21.693Z,5.25
2023-05-05T12:34:49.864Z,3.25
2023-05-05T12:37:19.251Z,5.85
2023-05-05T12:39:46.723Z,4.22
2023-05-05T12:42:13.823Z,4.13
2023-05-05T12:44:41.480Z,2.53
2023-05-05T12:47:08.816Z,3.28
2023-05-05T12:49:45.889Z,3.13
2023-05-05T12:52:14.246Z,3.17
2023-05-05T12:54:57.358Z,2.45
2023-05-05T12:57:24.609Z,2.88
2023-05-05T12:59:52.760Z,3.05
2023-05-05T13:02:20.697Z,5.18
2023-05-05T13:04:51.410Z,3.33
2023-05-05T13:07:19.620Z,2.42
2023-05-05T13:09:49.871Z,2.33
2023-05-05T13:12:20.807Z,3.10
2023-05-05T13:14:48.887Z,3.40
2023-05-05T13:17:16.024Z,3.35
2023-05-05T13:19:46.125Z,5.32
2023-05-05T13:22:13.556Z,6.22
2023-05-05T13:24:50.774Z,3.20
2023-05-05T13:27:19.205Z,2.58
2023-05-05T13:29:46.655Z,3.15
2023-05-05T13:32:13.746Z,3.08
2023-05-05T13:34:41.494Z,3.38
2023-05-05T13:37:08.677Z,2.60
2023-05-05T13:39:36.860Z,2.97
2023-05-05T13:42:04.030Z,3.50
2023-05-05T13:44:31.405Z,2.13
2023-05-05T13:46:58.546Z,6.28
2023-05-05T13:49:25.771Z,4.72
2023-05-05T13:51:52.885Z,2.95
2023-05-05T13:54:19.968Z,1.95
2023-05-05T13:56:47.226Z,2.10
2023-05-05T13:59:14.383Z,4.30
2023-05-05T14:01:41.464Z,3.42
2023-05-05T14:04:08.751Z,2.22
2023-05-05T14:06:36.195Z,3.38
2023-05-05T14:09:05.786Z,2.92
2023-05-05T14:11:33.194Z,5.35
2023-05-05T14:14:00.590Z,2.72
2023-05-05T14:16:27.774Z,2.03
2023-05-05T14:18:54.960Z,2.00
2023-05-05T14:21:22.046Z,3.60
2023-05-05T14:23:49.180Z,4.72
2023-05-05T14:26:16.358Z,2.85
2023-05-05T14:28:43.553Z,1.88
2023-05-05T14:31:11.208Z,2.30
2023-05-05T14:33:38.360Z,3.10
2023-05-05T14:36:05.750Z,2.67
2023-05-05T14:38:32.883Z,3.15
2023-05-05T14:41:00.097Z,4.65
2023-05-05T14:43:27.220Z,3.05
2023-05-05T14:45:54.388Z,2.10
2023-05-05T14:48:22.380Z,2.60
2023-05-05T14:50:49.957Z,2.40
2023-05-05T14:53:18.916Z,3.42
2023-05-05T14:55:46.099Z,3.63
2023-05-05T14:58:13.187Z,2.22
2023-05-05T15:00:40.294Z,1.52
2023-05-05T15:03:07.565Z,2.03
2023-05-05T15:05:35.146Z,2.28
2023-05-05T15:08:02.297Z,3.00
2023-05-05T15:10:29.437Z,12.63
2023-05-05T15:12:56.595Z,5.20
2023-05-05T15:15:23.719Z,8.75
2023-05-05T15:17:50.863Z,7.55
2023-05-05T15:20:18.041Z,9.30
2023-05-05T15:22:45.127Z,7.57
2023-05-05T15:25:14.837Z,33.33
2023-05-05T15:27:42.083Z,16.35
2023-05-05T15:30:09.469Z,20.30
2023-05-05T15:32:36.707Z,32.33
2023-05-05T15:35:04.500Z,8.02
2023-05-05T15:37:31.666Z,7.22
2023-05-05T15:39:58.869Z,5.57
2023-05-05T15:42:25.963Z,6.22
2023-05-05T15:44:53.151Z,6.30
2023-05-05T15:47:20.425Z,3.70
2023-05-05T15:49:47.514Z,3.80
2023-05-05T15:52:14.637Z,6.88
2023-05-05T15:54:41.816Z,4.53
2023-05-05T15:57:08.919Z,3.50
2023-05-05T15:59:36.036Z,4.43
2023-05-05T16:02:03.274Z,4.13
2023-05-05T16:04:30.558Z,3.72
2023-05-05T16:06:58.101Z,5.47
2023-05-05T16:09:25.268Z,7.05
2023-05-05T16:11:53.986Z,5.13
2023-05-05T16:14:21.105Z,6.18
2023-05-05T16:16:48.310Z,4.35
2023-05-05T16:19:15.895Z,3.10
2023-05-05T16:21:43.157Z,5.68
2023-05-05T16:24:10.292Z,6.97
2023-05-05T16:26:37.376Z,4.25
2023-05-05T16:29:04.440Z,3.38
2023-05-05T16:31:33.887Z,4.40
2023-05-05T16:34:01.197Z,5.30
2023-05-05T16:36:28.360Z,3.35
2023-05-05T16:38:56.099Z,5.28
2023-05-05T16:41:23.438Z,6.25
2023-05-05T16:43:50.593Z,6.30
2023-05-05T16:46:18.274Z,3.10
2023-05-05T16:48:46.001Z,2.63
2023-05-05T16:51:13.102Z,3.53
2023-05-05T16:53:40.224Z,5.90
2023-05-05T16:56:07.331Z,4.15
2023-05-05T16:58:34.396Z,4.70
2023-05-05T17:01:03.427Z,5.10
2023-05-05T17:03:30.516Z,5.10
2023-05-05T17:05:57.732Z,7.63
2023-05-05T17:08:24.994Z,6.00
2023-05-05T17:10:52.091Z,6.45
2023-05-05T17:13:19.413Z,4.15
2023-05-05T17:15:46.884Z,3.70
2023-05-05T17:18:14.026Z,3.65
2023-05-05T17:20:41.274Z,4.00
2023-05-05T17:23:08.797Z,3.50
2023-05-05T17:25:35.971Z,5.63
2023-05-05T17:28:03.143Z,5.22
2023-05-05T17:30:30.306Z,5.45
2023-05-05T17:32:57.601Z,8.32
2023-05-05T17:35:24.745Z,4.15
2023-05-05T17:37:51.920Z,6.43
2023-05-05T17:40:19.025Z,11.02
2023-05-05T17:42:46.111Z,5.50
2023-05-05T17:45:13.241Z,9.23
2023-05-05T17:47:40.372Z,8.93
2023-05-05T17:50:07.726Z,5.57
2023-05-05T17:52:34.819Z,6.43
2023-05-05T17:55:01.892Z,16.25
2023-05-05T17:57:29.027Z,7.30
2023-05-05T17:59:56.173Z,7.20
2023-05-05T18:02:24.085Z,22.95
2023-05-05T18:04:51.321Z,8.70
2023-05-05T18:07:18.451Z,14.02
2023-05-05T18:09:45.582Z,13.68
2023-05-05T18:12:12.709Z,41.63
2023-05-05T18:14:39.841Z,152.68
2023-05-05T18:17:07.097Z,29.17
2023-05-05T18:19:34.162Z,21.17
2023-05-05T18:22:01.565Z,41.17
2023-05-05T18:24:29.371Z,50.25
2023-05-05T18:26:56.637Z,110.15
2023-05-05T18:29:23.776Z,112.60
2023-05-05T18:31:52.992Z,93.22
2023-05-05T18:34:20.657Z,76.50
2023-05-05T18:36:47.984Z,44.55
2023-05-05T18:39:15.254Z,40.78
2023-05-05T18:41:42.362Z,36.05
2023-05-05T18:44:10.494Z,42.50
2023-05-05T18:46:37.713Z,47.40
2023-05-05T18:49:04.897Z,36.47
2023-05-05T18:51:32.260Z,34.75
2023-05-05T18:54:00.832Z,36.70
2023-05-05T18:56:28.032Z,39.72
2023-05-05T18:58:55.542Z,34.40
2023-05-05T19:01:23.301Z,35.97
2023-05-05T19:03:50.595Z,28.42
2023-05-05T19:06:18.185Z,28.55
2023-05-05T19:08:46.477Z,27.67
2023-05-05T19:11:15.036Z,25.73
2023-05-05T19:13:42.570Z,22.35
2023-05-05T19:16:10.952Z,25.27
2023-05-05T19:18:38.307Z,29.85
2023-05-05T19:21:05.432Z,22.48
2023-05-05T19:23:33.242Z,30.33
2023-05-05T19:26:00.761Z,24.15
2023-05-05T19:28:27.942Z,19.48
2023-05-05T19:30:55.083Z,15.82
2023-05-05T19:33:23.079Z,14.90
2023-05-05T19:35:50.548Z,19.95
2023-05-05T19:38:17.660Z,17.15
2023-05-05T19:40:44.746Z,15.85
2023-05-05T19:43:11.851Z,14.93
2023-05-05T19:45:39.075Z,16.02
2023-05-05T19:48:06.647Z,16.05
2023-05-05T19:50:33.786Z,15.10
2023-05-05T19:53:01.294Z,14.35
2023-05-05T19:55:28.414Z,14.60
2023-05-05T19:57:55.592Z,15.50
2023-05-05T20:00:22.794Z,17.15
2023-05-05T20:02:50.022Z,17.85
2023-05-05T20:05:17.463Z,21.83
2023-05-05T20:07:46.755Z,17.63
2023-05-05T20:10:14.002Z,38.00
2023-05-05T20:12:47.652Z,28.65
2023-05-05T20:15:18.473Z,34.35
2023-05-05T20:17:46.493Z,30.40
2023-05-05T20:20:16.157Z,36.22
2023-05-05T20:22:43.300Z,33.20
2023-05-05T20:25:10.489Z,39.65
2023-05-05T20:27:38.394Z,31.52
2023-05-05T20:30:09.546Z,27.13
2023-05-05T20:32:37.055Z,29.15
2023-05-05T20:35:05.756Z,26.05
2023-05-05T20:37:32.842Z,24.95
2023-05-05T20:39:59.992Z,23.38
2023-05-05T20:42:27.837Z,23.90
2023-05-05T20:44:55.255Z,27.15
2023-05-05T20:47:22.409Z,23.85
2023-05-05T20:49:49.511Z,20.67
2023-05-05T20:52:16.626Z,34.88
2023-05-05T20:54:43.769Z,88.32
2023-05-05T20:57:10.965Z,78.22
2023-05-05T20:59:38.333Z,69.88
2023-05-05T21:02:05.481Z,62.50
2023-05-05T21:04:32.793Z,57.08
2023-05-05T21:06:59.904Z,42.33
2023-05-05T21:09:27.048Z,37.60
2023-05-05T21:11:54.305Z,39.22
2023-05-05T21:14:21.935Z,29.50
2023-05-05T21:16:49.125Z,24.02
2023-05-05T21:19:16.448Z,28.58
2023-05-05T21:21:44.200Z,26.20
2023-05-05T21:24:13.006Z,25.05
2023-05-05T21:26:44.169Z,24.80
2023-05-05T21:29:11.431Z,23.48
2023-05-05T21:31:38.714Z,22.90
2023-05-05T21:34:05.996Z,27.05
2023-05-05T21:36:33.896Z,25.77
2023-05-05T21:39:01.260Z,29.75
2023-05-05T21:41:28.443Z,32.38
2023-05-05T21:43:55.739Z,30.15
2023-05-05T21:46:23.033Z,34.38
2023-05-05T21:48:50.316Z,31.10
2023-05-05T21:51:17.521Z,32.15
2023-05-05T21:53:44.672Z,28.52
2023-05-05T21:56:11.949Z,23.13
2023-05-05T21:58:40.938Z,20.20
2023-05-05T22:01:08.137Z,20.15
2023-05-05T22:03:35.483Z,18.08
2023-05-05T22:06:02.700Z,17.45
2023-05-05T22:08:29.809Z,20.65
2023-05-05T22:10:56.939Z,23.35
2023-05-05T22:13:24.100Z,23.02
2023-05-05T22:15:51.311Z,24.52
2023-05-05T22:18:18.485Z,24.20
2023-05-05T22:20:46.699Z,26.50
2023-05-05T22:23:14.053Z,27.17
2023-05-05T22:25:41.308Z,29.60
2023-05-05T22:28:08.388Z,21.45
2023-05-05T22:30:35.482Z,23.48
2023-05-05T22:33:02.695Z,23.63
2023-05-05T22:35:29.908Z,24.77
2023-05-05T22:37:57.079Z,23.52
2023-05-05T22:40:24.230Z,23.02
2023-05-05T22:42:51.413Z,29.20
2023-05-05T22:45:18.561Z,24.27
2023-05-05T22:47:45.746Z,27.40
2023-05-05T22:50:12.912Z,23.33
2023-05-05T22:52:39.991Z,24.17
2023-05-05T22:55:07.666Z,23.30
2023-05-05T22:57:35.648Z,21.40
2023-05-05T23:00:03.194Z,13.00
2023-05-05T23:02:30.347Z,13.10
2023-05-05T23:04:57.463Z,11.73
2023-05-05T23:07:24.593Z,11.48
2023-05-05T23:09:51.704Z,11.30
2023-05-05T23:12:18.823Z,11.77
2023-05-05T23:14:46.006Z,16.17
2023-05-05T23:17:13.230Z,14.05
2023-05-05T23:19:40.484Z,12.30
2023-05-05T23:22:07.575Z,13.35
2023-05-05T23:24:34.676Z,15.10
2023-05-05T23:27:02.105Z,14.88
2023-05-05T23:29:29.331Z,19.30
2023-05-05T23:31:56.488Z,19.55
2023-05-05T23:34:23.593Z,23.67
2023-05-05T23:36:50.705Z,22.17
2023-05-05T23:39:17.792Z,21.83
2023-05-05T23:41:44.913Z,25.08
2023-05-05T23:44:12.015Z,21.05
2023-05-05T23:46:39.316Z,21.00
2023-05-05T23:49:06.533Z,21.60
2023-05-05T23:51:33.763Z,21.35
2023-05-05T23:54:01.133Z,17.55
2023-05-05T23:56:28.280Z,18.77
2023-05-05T23:58:56.047Z,18.88
